DLH73H LFKB-EDDF
Flight info
| Callsign | DLH73H |
|---|---|
| Flight time | 1h 28m |
| Altitude | 19000 |
| Route | MOULE L146 ELB/N0446F380 DCT GOVGO DCT LEGLO DCT ABREG/N0430F340 DCT LADOL T163 EMPAX EMPAX5C |
| Aircraft | A319/M-SDE2E3FGIJ1LORWXYZ/HB1 |
Departure
| Time | 2026-04-15 13:55 |
|---|---|
| Airport | Bastia-Poretta International airport (LFKB) |
Arrival
| Time | 2026-04-15 15:24 |
|---|---|
| Airport | Frankfurt Main Airport (EDDF) |
| Time | Latitude | Longitude | Altitude | Speed | Heading |
|---|---|---|---|---|---|
| 2026-04-15 13:28 | 42.54882 | 9.48145 | 37 ft | 0 kts | 281° |
| 2026-04-15 13:47 | 42.54881 | 9.48258 | 37 ft | 1 kts | 176° |
| 2026-04-15 13:47 | 42.54887 | 9.48256 | 37 ft | 1 kts | 156° |
| 2026-04-15 13:47 | 42.54891 | 9.48254 | 37 ft | 0 kts | 163° |
| 2026-04-15 13:49 | 42.54890 | 9.48255 | 37 ft | 0 kts | 163° |
| 2026-04-15 13:50 | 42.54868 | 9.48263 | 37 ft | 5 kts | 163° |
| 2026-04-15 13:50 | 42.54816 | 9.48284 | 37 ft | 9 kts | 162° |
| 2026-04-15 13:50 | 42.54739 | 9.48317 | 37 ft | 12 kts | 162° |
| 2026-04-15 13:50 | 42.54648 | 9.48356 | 37 ft | 14 kts | 163° |
| 2026-04-15 13:51 | 42.54552 | 9.48394 | 37 ft | 15 kts | 162° |
| 2026-04-15 13:51 | 42.54446 | 9.48417 | 38 ft | 15 kts | 188° |
| 2026-04-15 13:51 | 42.54337 | 9.48442 | 37 ft | 16 kts | 162° |
| 2026-04-15 13:51 | 42.54223 | 9.48490 | 37 ft | 17 kts | 163° |
| 2026-04-15 13:52 | 42.54134 | 9.48596 | 37 ft | 13 kts | 107° |
| 2026-04-15 13:52 | 42.54134 | 9.48696 | 36 ft | 5 kts | 69° |
| 2026-04-15 13:52 | 42.54136 | 9.48700 | 36 ft | 0 kts | 67° |
| 2026-04-15 13:54 | 42.54143 | 9.48719 | 36 ft | 4 kts | 58° |
| 2026-04-15 13:54 | 42.54174 | 9.48772 | 36 ft | 10 kts | 42° |
| 2026-04-15 13:54 | 42.54237 | 9.48805 | 36 ft | 8 kts | 347° |
| 2026-04-15 13:55 | 42.54297 | 9.48781 | 36 ft | 17 kts | 343° |
| 2026-04-15 13:55 | 42.54682 | 9.48617 | 37 ft | 96 kts | 342° |
| 2026-04-15 13:55 | 42.55537 | 9.48260 | 56 ft | 157 kts | 343° |
| 2026-04-15 13:55 | 42.56620 | 9.47840 | 657 ft | 164 kts | 351° |
| 2026-04-15 13:56 | 42.57691 | 9.48128 | 1416 ft | 166 kts | 40° |
| 2026-04-15 13:56 | 42.58147 | 9.49520 | 2211 ft | 173 kts | 79° |
| 2026-04-15 13:56 | 42.58313 | 9.51195 | 2759 ft | 193 kts | 77° |
| 2026-04-15 13:56 | 42.58573 | 9.53056 | 3385 ft | 211 kts | 75° |
| 2026-04-15 13:57 | 42.58895 | 9.55080 | 4042 ft | 229 kts | 75° |
| 2026-04-15 13:57 | 42.59251 | 9.57258 | 4689 ft | 248 kts | 75° |
| 2026-04-15 13:57 | 42.59631 | 9.59575 | 5527 ft | 258 kts | 75° |
| 2026-04-15 13:57 | 42.60021 | 9.61954 | 6517 ft | 262 kts | 76° |
| 2026-04-15 13:58 | 42.60417 | 9.64375 | 6928 ft | 264 kts | 76° |
| 2026-04-15 13:58 | 42.60812 | 9.66801 | 7030 ft | 264 kts | 76° |
| 2026-04-15 13:58 | 42.61209 | 9.69233 | 7026 ft | 264 kts | 77° |
| 2026-04-15 13:58 | 42.61610 | 9.71692 | 7022 ft | 263 kts | 76° |
| 2026-04-15 13:59 | 42.62004 | 9.74110 | 7032 ft | 263 kts | 76° |
| 2026-04-15 13:59 | 42.62405 | 9.76519 | 7022 ft | 263 kts | 76° |
| 2026-04-15 13:59 | 42.62821 | 9.78941 | 7017 ft | 263 kts | 76° |
| 2026-04-15 13:59 | 42.63240 | 9.81372 | 7016 ft | 263 kts | 76° |
| 2026-04-15 14:00 | 42.63658 | 9.83797 | 7013 ft | 264 kts | 76° |
| 2026-04-15 14:00 | 42.64074 | 9.86219 | 7013 ft | 264 kts | 76° |
| 2026-04-15 14:00 | 42.64491 | 9.88648 | 7012 ft | 264 kts | 76° |
| 2026-04-15 14:00 | 42.64912 | 9.91101 | 7013 ft | 264 kts | 76° |
| 2026-04-15 14:01 | 42.65737 | 9.95937 | 7010 ft | 264 kts | 76° |
| 2026-04-15 14:01 | 42.66151 | 9.98361 | 7017 ft | 264 kts | 76° |
| 2026-04-15 14:01 | 42.66567 | 10.00803 | 7019 ft | 264 kts | 76° |
| 2026-04-15 14:02 | 42.66980 | 10.03240 | 7017 ft | 264 kts | 76° |
| 2026-04-15 14:02 | 42.67392 | 10.05662 | 7017 ft | 264 kts | 76° |
| 2026-04-15 14:02 | 42.67805 | 10.08100 | 7016 ft | 264 kts | 76° |
| 2026-04-15 14:02 | 42.68213 | 10.10515 | 7012 ft | 264 kts | 76° |
| 2026-04-15 14:03 | 42.68623 | 10.12944 | 7008 ft | 264 kts | 76° |
| 2026-04-15 14:03 | 42.69031 | 10.15369 | 6999 ft | 265 kts | 76° |
| 2026-04-15 14:03 | 42.69442 | 10.17804 | 7006 ft | 265 kts | 76° |
| 2026-04-15 14:03 | 42.69851 | 10.20244 | 7008 ft | 265 kts | 76° |
| 2026-04-15 14:04 | 42.70264 | 10.22700 | 7232 ft | 272 kts | 76° |
| 2026-04-15 14:04 | 42.70685 | 10.25206 | 8159 ft | 274 kts | 76° |
| 2026-04-15 14:04 | 42.71107 | 10.27720 | 9233 ft | 273 kts | 76° |
| 2026-04-15 14:04 | 42.71522 | 10.30201 | 10131 ft | 277 kts | 76° |
| 2026-04-15 14:05 | 42.71955 | 10.32795 | 10864 ft | 288 kts | 76° |
| 2026-04-15 14:05 | 42.72620 | 10.35420 | 11524 ft | 299 kts | 59° |
| 2026-04-15 14:05 | 42.73999 | 10.37509 | 12365 ft | 304 kts | 37° |
| 2026-04-15 14:05 | 42.75912 | 10.38754 | 13193 ft | 310 kts | 15° |
| 2026-04-15 14:06 | 42.78080 | 10.38919 | 13996 ft | 317 kts | 357° |
| 2026-04-15 14:06 | 42.80277 | 10.38611 | 14799 ft | 321 kts | 356° |
| 2026-04-15 14:06 | 42.82433 | 10.38303 | 15344 ft | 310 kts | 356° |
| 2026-04-15 14:06 | 42.84657 | 10.37992 | 15764 ft | 326 kts | 356° |
| 2026-04-15 14:07 | 42.86930 | 10.37677 | 16326 ft | 336 kts | 356° |
| 2026-04-15 14:07 | 42.89285 | 10.37353 | 16891 ft | 344 kts | 356° |
| 2026-04-15 14:07 | 42.91687 | 10.37021 | 17605 ft | 348 kts | 356° |
| 2026-04-15 14:07 | 42.94074 | 10.36691 | 18323 ft | 351 kts | 356° |
| 2026-04-15 14:08 | 42.96552 | 10.36350 | 18998 ft | 355 kts | 356° |
| 2026-04-15 14:08 | 42.99009 | 10.36011 | 19627 ft | 359 kts | 356° |
| 2026-04-15 14:08 | 43.01528 | 10.35666 | 20250 ft | 364 kts | 356° |
| 2026-04-15 14:08 | 43.04038 | 10.35321 | 20847 ft | 368 kts | 356° |
| 2026-04-15 14:09 | 43.06621 | 10.34966 | 21465 ft | 373 kts | 356° |
| 2026-04-15 14:09 | 43.09207 | 10.34610 | 22053 ft | 377 kts | 356° |
| 2026-04-15 14:09 | 43.11832 | 10.34248 | 22638 ft | 381 kts | 356° |
| 2026-04-15 14:09 | 43.14509 | 10.33878 | 23211 ft | 385 kts | 356° |
| 2026-04-15 14:10 | 43.17205 | 10.33493 | 23775 ft | 389 kts | 354° |
| 2026-04-15 14:10 | 43.19890 | 10.32963 | 24344 ft | 393 kts | 353° |
| 2026-04-15 14:10 | 43.22594 | 10.32375 | 24975 ft | 395 kts | 352° |
| 2026-04-15 14:10 | 43.25312 | 10.31772 | 25605 ft | 396 kts | 352° |
| 2026-04-15 14:11 | 43.28033 | 10.31167 | 26184 ft | 397 kts | 352° |
| 2026-04-15 14:11 | 43.30751 | 10.30565 | 26738 ft | 399 kts | 352° |
| 2026-04-15 14:11 | 43.33525 | 10.29953 | 27279 ft | 401 kts | 352° |
| 2026-04-15 14:11 | 43.36253 | 10.29351 | 27813 ft | 402 kts | 352° |
| 2026-04-15 14:12 | 43.39036 | 10.28735 | 28332 ft | 403 kts | 352° |
| 2026-04-15 14:12 | 43.41790 | 10.28128 | 28796 ft | 406 kts | 352° |
| 2026-04-15 14:12 | 43.44620 | 10.27504 | 29215 ft | 409 kts | 352° |
| 2026-04-15 14:12 | 43.47405 | 10.26887 | 29669 ft | 410 kts | 352° |
| 2026-04-15 14:13 | 43.50252 | 10.26258 | 30125 ft | 412 kts | 352° |
| 2026-04-15 14:13 | 43.53092 | 10.25629 | 30554 ft | 413 kts | 352° |
| 2026-04-15 14:13 | 43.55918 | 10.25001 | 30943 ft | 414 kts | 352° |
| 2026-04-15 14:13 | 43.58772 | 10.24367 | 31343 ft | 415 kts | 353° |
| 2026-04-15 14:14 | 43.61625 | 10.23731 | 31858 ft | 411 kts | 353° |
| 2026-04-15 14:14 | 43.64400 | 10.23112 | 32480 ft | 405 kts | 353° |
| 2026-04-15 14:14 | 43.67145 | 10.22498 | 33050 ft | 400 kts | 353° |
| 2026-04-15 14:14 | 43.69898 | 10.21884 | 33556 ft | 396 kts | 354° |
| 2026-04-15 14:15 | 43.72568 | 10.21288 | 34059 ft | 392 kts | 354° |
| 2026-04-15 14:15 | 43.75241 | 10.20692 | 34513 ft | 388 kts | 354° |
| 2026-04-15 14:15 | 43.77932 | 10.20094 | 34890 ft | 386 kts | 354° |
| 2026-04-15 14:15 | 43.80583 | 10.19504 | 35199 ft | 385 kts | 354° |
| 2026-04-15 14:16 | 43.83233 | 10.18912 | 35477 ft | 385 kts | 354° |
| 2026-04-15 14:16 | 43.85864 | 10.18325 | 35769 ft | 384 kts | 354° |
| 2026-04-15 14:16 | 43.88495 | 10.17737 | 36042 ft | 384 kts | 354° |
| 2026-04-15 14:16 | 43.91131 | 10.17149 | 36368 ft | 383 kts | 354° |
| 2026-04-15 14:17 | 43.93779 | 10.16555 | 36675 ft | 383 kts | 354° |
| 2026-04-15 14:17 | 43.96413 | 10.15962 | 36928 ft | 384 kts | 354° |
| 2026-04-15 14:17 | 43.99040 | 10.15372 | 37154 ft | 386 kts | 354° |
| 2026-04-15 14:17 | 44.01712 | 10.14772 | 37422 ft | 386 kts | 353° |
| 2026-04-15 14:18 | 44.04357 | 10.14177 | 37646 ft | 386 kts | 353° |
| 2026-04-15 14:18 | 44.07010 | 10.13578 | 37857 ft | 388 kts | 353° |
| 2026-04-15 14:18 | 44.09668 | 10.12978 | 38015 ft | 389 kts | 353° |
| 2026-04-15 14:19 | 44.15049 | 10.11761 | 38046 ft | 390 kts | 353° |
| 2026-04-15 14:19 | 44.20409 | 10.10547 | 38074 ft | 390 kts | 353° |
| 2026-04-15 14:20 | 44.25769 | 10.09328 | 38070 ft | 389 kts | 353° |
| 2026-04-15 14:20 | 44.31117 | 10.08113 | 38072 ft | 389 kts | 353° |
| 2026-04-15 14:21 | 44.36499 | 10.06889 | 38074 ft | 389 kts | 353° |
| 2026-04-15 14:21 | 44.41815 | 10.05674 | 38072 ft | 388 kts | 353° |
| 2026-04-15 14:22 | 44.47149 | 10.04456 | 38079 ft | 388 kts | 353° |
| 2026-04-15 14:22 | 44.52438 | 10.03243 | 38083 ft | 387 kts | 353° |
| 2026-04-15 14:23 | 44.57782 | 10.02018 | 38087 ft | 387 kts | 354° |
| 2026-04-15 14:23 | 44.63097 | 10.00797 | 38093 ft | 388 kts | 353° |
| 2026-04-15 14:24 | 44.68408 | 9.99575 | 38092 ft | 387 kts | 354° |
| 2026-04-15 14:24 | 44.73753 | 9.98343 | 38106 ft | 386 kts | 353° |
| 2026-04-15 14:25 | 44.79039 | 9.97120 | 38112 ft | 386 kts | 353° |
| 2026-04-15 14:25 | 44.84345 | 9.95892 | 38098 ft | 385 kts | 353° |
| 2026-04-15 14:26 | 44.89634 | 9.94665 | 38110 ft | 385 kts | 353° |
| 2026-04-15 14:26 | 44.94900 | 9.93442 | 38114 ft | 385 kts | 353° |
| 2026-04-15 14:27 | 45.00194 | 9.92210 | 38117 ft | 385 kts | 353° |
| 2026-04-15 14:27 | 45.05454 | 9.90983 | 38098 ft | 384 kts | 353° |
| 2026-04-15 14:28 | 45.10737 | 9.89749 | 38106 ft | 385 kts | 353° |
| 2026-04-15 14:28 | 45.16019 | 9.88513 | 38097 ft | 385 kts | 353° |
| 2026-04-15 14:29 | 45.21321 | 9.87265 | 38098 ft | 385 kts | 353° |
| 2026-04-15 14:29 | 45.26598 | 9.86025 | 38098 ft | 386 kts | 354° |
| 2026-04-15 14:30 | 45.31892 | 9.84781 | 38101 ft | 386 kts | 353° |
| 2026-04-15 14:30 | 45.37240 | 9.83522 | 38098 ft | 386 kts | 353° |
| 2026-04-15 14:31 | 45.42529 | 9.82270 | 38134 ft | 386 kts | 353° |
| 2026-04-15 14:31 | 45.47844 | 9.81012 | 37905 ft | 386 kts | 353° |
| 2026-04-15 14:31 | 45.50478 | 9.80386 | 38040 ft | 387 kts | 353° |
| 2026-04-15 14:32 | 45.53149 | 9.79753 | 38163 ft | 387 kts | 353° |
| 2026-04-15 14:32 | 45.58442 | 9.78493 | 38118 ft | 387 kts | 354° |
| 2026-04-15 14:33 | 45.63749 | 9.77228 | 38116 ft | 387 kts | 353° |
| 2026-04-15 14:33 | 45.69027 | 9.75620 | 38119 ft | 388 kts | 350° |
| 2026-04-15 14:34 | 45.74293 | 9.73886 | 38118 ft | 388 kts | 350° |
| 2026-04-15 14:34 | 45.79570 | 9.72143 | 38122 ft | 389 kts | 350° |
| 2026-04-15 14:35 | 45.84877 | 9.70390 | 38130 ft | 389 kts | 350° |
| 2026-04-15 14:35 | 45.90119 | 9.68656 | 38136 ft | 389 kts | 350° |
| 2026-04-15 14:36 | 45.95416 | 9.66899 | 38144 ft | 389 kts | 350° |
| 2026-04-15 14:36 | 46.00688 | 9.65150 | 37988 ft | 390 kts | 350° |
| 2026-04-15 14:36 | 46.03362 | 9.64262 | 37692 ft | 390 kts | 350° |
| 2026-04-15 14:37 | 46.05985 | 9.63387 | 37399 ft | 391 kts | 350° |
| 2026-04-15 14:37 | 46.08653 | 9.62499 | 37104 ft | 391 kts | 350° |
| 2026-04-15 14:37 | 46.11330 | 9.61604 | 36810 ft | 391 kts | 350° |
| 2026-04-15 14:37 | 46.13981 | 9.60720 | 36520 ft | 392 kts | 350° |
| 2026-04-15 14:38 | 46.16636 | 9.59833 | 36227 ft | 391 kts | 350° |
| 2026-04-15 14:38 | 46.19313 | 9.58938 | 35934 ft | 392 kts | 350° |
| 2026-04-15 14:38 | 46.21973 | 9.58047 | 35640 ft | 392 kts | 350° |
| 2026-04-15 14:38 | 46.24625 | 9.57160 | 35349 ft | 393 kts | 350° |
| 2026-04-15 14:39 | 46.27295 | 9.56262 | 35059 ft | 395 kts | 350° |
| 2026-04-15 14:39 | 46.29993 | 9.55356 | 34765 ft | 395 kts | 350° |
| 2026-04-15 14:39 | 46.32655 | 9.54490 | 34478 ft | 396 kts | 351° |
| 2026-04-15 14:39 | 46.35384 | 9.53639 | 34197 ft | 397 kts | 351° |
| 2026-04-15 14:40 | 46.38103 | 9.52799 | 34143 ft | 397 kts | 351° |
| 2026-04-15 14:40 | 46.43500 | 9.51125 | 34142 ft | 396 kts | 351° |
| 2026-04-15 14:41 | 46.48882 | 9.49451 | 34141 ft | 397 kts | 351° |
| 2026-04-15 14:41 | 46.54306 | 9.47755 | 34143 ft | 397 kts | 351° |
| 2026-04-15 14:42 | 46.59722 | 9.46058 | 34138 ft | 397 kts | 350° |
| 2026-04-15 14:42 | 46.65126 | 9.44364 | 34139 ft | 398 kts | 350° |
| 2026-04-15 14:43 | 46.70528 | 9.42662 | 34133 ft | 398 kts | 350° |
| 2026-04-15 14:43 | 46.75940 | 9.40957 | 34144 ft | 398 kts | 350° |
| 2026-04-15 14:44 | 46.81352 | 9.39247 | 34149 ft | 399 kts | 350° |
| 2026-04-15 14:44 | 46.86785 | 9.37526 | 34154 ft | 399 kts | 350° |
| 2026-04-15 14:45 | 46.92201 | 9.35811 | 34155 ft | 399 kts | 349° |
| 2026-04-15 14:45 | 46.97667 | 9.34071 | 34159 ft | 398 kts | 349° |
| 2026-04-15 14:46 | 47.03093 | 9.32342 | 34154 ft | 398 kts | 349° |
| 2026-04-15 14:46 | 47.08524 | 9.30607 | 34158 ft | 400 kts | 349° |
| 2026-04-15 14:47 | 47.14011 | 9.28853 | 34159 ft | 400 kts | 349° |
| 2026-04-15 14:47 | 47.19491 | 9.27096 | 34163 ft | 400 kts | 348° |
| 2026-04-15 14:48 | 47.24933 | 9.25348 | 34164 ft | 400 kts | 348° |
| 2026-04-15 14:48 | 47.30365 | 9.23601 | 34159 ft | 400 kts | 348° |
| 2026-04-15 14:49 | 47.35825 | 9.21839 | 34157 ft | 400 kts | 348° |
| 2026-04-15 14:49 | 47.41259 | 9.20080 | 34148 ft | 400 kts | 348° |
| 2026-04-15 14:50 | 47.46709 | 9.18313 | 34144 ft | 400 kts | 348° |
| 2026-04-15 14:50 | 47.52161 | 9.16541 | 34138 ft | 401 kts | 348° |
| 2026-04-15 14:51 | 47.57631 | 9.14764 | 34144 ft | 402 kts | 348° |
| 2026-04-15 14:51 | 47.63077 | 9.12992 | 34148 ft | 402 kts | 348° |
| 2026-04-15 14:52 | 47.68547 | 9.11206 | 34152 ft | 402 kts | 347° |
| 2026-04-15 14:52 | 47.74015 | 9.09414 | 34147 ft | 402 kts | 347° |
| 2026-04-15 14:53 | 47.79485 | 9.07617 | 34145 ft | 402 kts | 347° |
| 2026-04-15 14:53 | 47.84989 | 9.05805 | 34147 ft | 403 kts | 347° |
| 2026-04-15 14:54 | 47.90458 | 9.04006 | 34140 ft | 403 kts | 347° |
| 2026-04-15 14:54 | 47.95911 | 9.02205 | 34144 ft | 402 kts | 347° |
| 2026-04-15 14:55 | 48.01419 | 9.00383 | 34138 ft | 404 kts | 347° |
| 2026-04-15 14:55 | 48.06920 | 8.98556 | 34137 ft | 404 kts | 347° |
| 2026-04-15 14:56 | 48.12464 | 8.96882 | 34136 ft | 405 kts | 351° |
| 2026-04-15 14:56 | 48.18114 | 8.96118 | 34135 ft | 406 kts | 357° |
| 2026-04-15 14:57 | 48.23790 | 8.96389 | 34134 ft | 407 kts | 3° |
| 2026-04-15 14:57 | 48.29412 | 8.97215 | 34137 ft | 408 kts | 4° |
| 2026-04-15 14:58 | 48.35086 | 8.98087 | 34138 ft | 409 kts | 4° |
| 2026-04-15 14:58 | 48.37925 | 8.98523 | 33945 ft | 410 kts | 4° |
| 2026-04-15 14:58 | 48.40764 | 8.98957 | 33250 ft | 413 kts | 4° |
| 2026-04-15 14:58 | 48.43621 | 8.99393 | 32286 ft | 420 kts | 4° |
| 2026-04-15 14:59 | 48.46546 | 8.99837 | 31317 ft | 426 kts | 4° |
| 2026-04-15 14:59 | 48.49509 | 9.00288 | 30386 ft | 430 kts | 4° |
| 2026-04-15 14:59 | 48.52480 | 9.00741 | 29587 ft | 429 kts | 4° |
| 2026-04-15 14:59 | 48.55456 | 9.01198 | 29037 ft | 423 kts | 4° |
| 2026-04-15 15:00 | 48.58334 | 9.01641 | 28530 ft | 417 kts | 4° |
| 2026-04-15 15:00 | 48.61196 | 9.02080 | 28036 ft | 411 kts | 4° |
| 2026-04-15 15:00 | 48.64045 | 9.02625 | 27533 ft | 405 kts | 6° |
| 2026-04-15 15:00 | 48.66812 | 9.03262 | 27044 ft | 400 kts | 7° |
| 2026-04-15 15:01 | 48.69524 | 9.03910 | 26561 ft | 395 kts | 7° |
| 2026-04-15 15:01 | 48.72224 | 9.04560 | 26071 ft | 391 kts | 7° |
| 2026-04-15 15:01 | 48.74913 | 9.05207 | 25578 ft | 387 kts | 7° |
| 2026-04-15 15:01 | 48.77564 | 9.05843 | 25096 ft | 383 kts | 7° |
| 2026-04-15 15:02 | 48.80186 | 9.06471 | 24626 ft | 380 kts | 7° |
| 2026-04-15 15:02 | 48.82772 | 9.07091 | 24159 ft | 377 kts | 7° |
| 2026-04-15 15:02 | 48.85368 | 9.07714 | 23703 ft | 374 kts | 7° |
| 2026-04-15 15:02 | 48.87935 | 9.08304 | 23249 ft | 371 kts | 6° |
| 2026-04-15 15:03 | 48.90498 | 9.08734 | 22800 ft | 368 kts | 4° |
| 2026-04-15 15:03 | 48.93011 | 9.09098 | 22367 ft | 366 kts | 4° |
| 2026-04-15 15:03 | 48.95537 | 9.09452 | 21932 ft | 364 kts | 3° |
| 2026-04-15 15:03 | 48.98063 | 9.09808 | 21492 ft | 362 kts | 4° |
| 2026-04-15 15:04 | 49.00558 | 9.10161 | 21168 ft | 358 kts | 4° |
| 2026-04-15 15:04 | 49.03062 | 9.10516 | 20801 ft | 360 kts | 3° |
| 2026-04-15 15:04 | 49.05563 | 9.10870 | 20243 ft | 362 kts | 4° |
| 2026-04-15 15:04 | 49.08058 | 9.11226 | 19745 ft | 362 kts | 4° |
| 2026-04-15 15:05 | 49.10580 | 9.11585 | 19270 ft | 361 kts | 3° |
| 2026-04-15 15:05 | 49.13100 | 9.11945 | 18802 ft | 360 kts | 4° |
| 2026-04-15 15:05 | 49.15584 | 9.12302 | 18346 ft | 359 kts | 4° |
| 2026-04-15 15:05 | 49.18093 | 9.12660 | 17893 ft | 358 kts | 4° |
| 2026-04-15 15:06 | 49.23084 | 9.13377 | 17001 ft | 355 kts | 4° |
| 2026-04-15 15:06 | 49.25563 | 9.13734 | 16559 ft | 354 kts | 4° |
| 2026-04-15 15:06 | 49.27991 | 9.14171 | 16123 ft | 353 kts | 7° |
| 2026-04-15 15:07 | 49.30406 | 9.14847 | 15661 ft | 353 kts | 11° |
| 2026-04-15 15:07 | 49.32802 | 9.15670 | 15193 ft | 353 kts | 11° |
| 2026-04-15 15:07 | 49.35198 | 9.16523 | 14717 ft | 352 kts | 12° |
| 2026-04-15 15:07 | 49.37572 | 9.17374 | 14242 ft | 350 kts | 12° |
| 2026-04-15 15:08 | 49.39953 | 9.18224 | 13763 ft | 349 kts | 12° |
| 2026-04-15 15:08 | 49.42302 | 9.19063 | 13282 ft | 347 kts | 12° |
| 2026-04-15 15:08 | 49.44627 | 9.19892 | 12809 ft | 344 kts | 12° |
| 2026-04-15 15:08 | 49.46960 | 9.20720 | 12328 ft | 342 kts | 12° |
| 2026-04-15 15:09 | 49.49257 | 9.21534 | 11946 ft | 336 kts | 12° |
| 2026-04-15 15:09 | 49.51509 | 9.22332 | 11796 ft | 329 kts | 12° |
| 2026-04-15 15:09 | 49.53744 | 9.23126 | 11665 ft | 329 kts | 12° |
| 2026-04-15 15:09 | 49.55957 | 9.23916 | 11538 ft | 329 kts | 12° |
| 2026-04-15 15:10 | 49.58201 | 9.24717 | 11408 ft | 329 kts | 12° |
| 2026-04-15 15:10 | 49.60429 | 9.25516 | 11279 ft | 329 kts | 12° |
| 2026-04-15 15:10 | 49.62667 | 9.26317 | 11150 ft | 328 kts | 12° |
| 2026-04-15 15:10 | 49.64866 | 9.27107 | 11025 ft | 328 kts | 12° |
| 2026-04-15 15:11 | 49.67103 | 9.27909 | 10895 ft | 327 kts | 12° |
| 2026-04-15 15:11 | 49.69324 | 9.28709 | 10678 ft | 322 kts | 12° |
| 2026-04-15 15:11 | 49.71468 | 9.29482 | 10424 ft | 313 kts | 12° |
| 2026-04-15 15:11 | 49.73548 | 9.30232 | 10201 ft | 303 kts | 12° |
| 2026-04-15 15:12 | 49.75551 | 9.30954 | 10161 ft | 291 kts | 12° |
| 2026-04-15 15:12 | 49.77523 | 9.31665 | 10160 ft | 290 kts | 12° |
| 2026-04-15 15:12 | 49.79523 | 9.32212 | 10150 ft | 289 kts | 359° |
| 2026-04-15 15:12 | 49.81483 | 9.31637 | 10157 ft | 287 kts | 339° |
| 2026-04-15 15:13 | 49.83310 | 9.30452 | 10155 ft | 287 kts | 334° |
| 2026-04-15 15:13 | 49.85131 | 9.29148 | 10154 ft | 287 kts | 334° |
| 2026-04-15 15:13 | 49.86947 | 9.27826 | 10155 ft | 287 kts | 333° |
| 2026-04-15 15:13 | 49.88758 | 9.26507 | 10148 ft | 286 kts | 333° |
| 2026-04-15 15:14 | 49.90552 | 9.25202 | 9888 ft | 283 kts | 333° |
| 2026-04-15 15:14 | 49.92283 | 9.23944 | 9458 ft | 284 kts | 333° |
| 2026-04-15 15:14 | 49.94070 | 9.22646 | 9067 ft | 283 kts | 333° |
| 2026-04-15 15:14 | 49.95848 | 9.21355 | 8705 ft | 281 kts | 334° |
| 2026-04-15 15:15 | 49.97579 | 9.20093 | 8504 ft | 273 kts | 333° |
| 2026-04-15 15:15 | 49.99267 | 9.18860 | 8338 ft | 264 kts | 333° |
| 2026-04-15 15:15 | 50.00922 | 9.17651 | 8175 ft | 255 kts | 333° |
| 2026-04-15 15:15 | 50.02493 | 9.16503 | 8014 ft | 247 kts | 333° |
| 2026-04-15 15:16 | 50.04047 | 9.15366 | 7767 ft | 244 kts | 334° |
| 2026-04-15 15:16 | 50.05569 | 9.14247 | 7454 ft | 244 kts | 334° |
| 2026-04-15 15:16 | 50.07105 | 9.13108 | 7139 ft | 243 kts | 333° |
| 2026-04-15 15:16 | 50.08616 | 9.11986 | 6683 ft | 240 kts | 334° |
| 2026-04-15 15:17 | 50.10123 | 9.10867 | 6127 ft | 240 kts | 334° |
| 2026-04-15 15:17 | 50.11585 | 9.09607 | 5560 ft | 238 kts | 318° |
| 2026-04-15 15:17 | 50.12522 | 9.07545 | 5030 ft | 238 kts | 291° |
| 2026-04-15 15:17 | 50.13034 | 9.05076 | 4737 ft | 235 kts | 285° |
| 2026-04-15 15:18 | 50.13451 | 9.02617 | 4440 ft | 235 kts | 281° |
| 2026-04-15 15:18 | 50.13541 | 9.00107 | 4172 ft | 233 kts | 263° |
| 2026-04-15 15:18 | 50.13202 | 8.97638 | 3981 ft | 231 kts | 253° |
| 2026-04-15 15:18 | 50.12735 | 8.95252 | 3971 ft | 233 kts | 251° |
| 2026-04-15 15:19 | 50.12214 | 8.92823 | 3967 ft | 234 kts | 250° |
| 2026-04-15 15:19 | 50.11669 | 8.90454 | 3967 ft | 234 kts | 249° |
| 2026-04-15 15:19 | 50.11106 | 8.88093 | 3960 ft | 227 kts | 249° |
| 2026-04-15 15:19 | 50.10563 | 8.85848 | 3880 ft | 215 kts | 249° |
| 2026-04-15 15:20 | 50.10047 | 8.83730 | 3692 ft | 202 kts | 249° |
| 2026-04-15 15:20 | 50.09564 | 8.81739 | 3436 ft | 193 kts | 249° |
| 2026-04-15 15:20 | 50.09105 | 8.79847 | 3149 ft | 179 kts | 248° |
| 2026-04-15 15:20 | 50.08684 | 8.78106 | 2898 ft | 169 kts | 249° |
| 2026-04-15 15:21 | 50.08268 | 8.76386 | 2690 ft | 168 kts | 248° |
| 2026-04-15 15:21 | 50.07852 | 8.74662 | 2464 ft | 167 kts | 248° |
| 2026-04-15 15:21 | 50.07446 | 8.72978 | 2247 ft | 166 kts | 248° |
| 2026-04-15 15:21 | 50.07127 | 8.71249 | 2036 ft | 167 kts | 261° |
| 2026-04-15 15:22 | 50.07019 | 8.69433 | 1865 ft | 168 kts | 262° |
| 2026-04-15 15:22 | 50.06742 | 8.67671 | 1697 ft | 167 kts | 248° |
| 2026-04-15 15:22 | 50.06295 | 8.66012 | 1512 ft | 166 kts | 246° |
| 2026-04-15 15:22 | 50.05887 | 8.64345 | 1229 ft | 158 kts | 250° |
| 2026-04-15 15:23 | 50.05512 | 8.62801 | 1005 ft | 148 kts | 249° |
| 2026-04-15 15:23 | 50.05154 | 8.61324 | 775 ft | 140 kts | 249° |
| 2026-04-15 15:23 | 50.04823 | 8.59955 | 592 ft | 135 kts | 249° |
| 2026-04-15 15:23 | 50.04488 | 8.58574 | 414 ft | 134 kts | 249° |
| 2026-04-15 15:24 | 50.04182 | 8.57295 | 354 ft | 113 kts | 250° |
| 2026-04-15 15:24 | 50.03957 | 8.56362 | 354 ft | 81 kts | 250° |
| 2026-04-15 15:24 | 50.03897 | 8.55790 | 354 ft | 31 kts | 279° |
| 2026-04-15 15:24 | 50.03911 | 8.55653 | 354 ft | 5 kts | 280° |
| 2026-04-15 15:25 | 50.03919 | 8.55587 | 354 ft | 7 kts | 280° |
| 2026-04-15 15:25 | 50.03941 | 8.55562 | 354 ft | 5 kts | 18° |
| 2026-04-15 15:25 | 50.03970 | 8.55613 | 354 ft | 7 kts | 66° |
| 2026-04-15 15:25 | 50.03991 | 8.55701 | 354 ft | 10 kts | 70° |
| 2026-04-15 15:26 | 50.04022 | 8.55828 | 354 ft | 14 kts | 70° |
| 2026-04-15 15:26 | 50.04059 | 8.55981 | 354 ft | 16 kts | 68° |
| 2026-04-15 15:26 | 50.04100 | 8.56151 | 354 ft | 17 kts | 71° |
| 2026-04-15 15:26 | 50.04128 | 8.56265 | 354 ft | 9 kts | 55° |
| 2026-04-15 15:27 | 50.04191 | 8.56274 | 354 ft | 10 kts | 339° |
| 2026-04-15 15:27 | 50.04268 | 8.56228 | 354 ft | 12 kts | 340° |
| 2026-04-15 15:27 | 50.04297 | 8.56114 | 354 ft | 12 kts | 289° |
| 2026-04-15 15:27 | 50.04376 | 8.56041 | 354 ft | 13 kts | 339° |
| 2026-04-15 15:28 | 50.04442 | 8.56063 | 354 ft | 7 kts | 57° |
| 2026-04-15 15:28 | 50.04447 | 8.56127 | 354 ft | 4 kts | 135° |
| 2026-04-15 15:28 | 50.04419 | 8.56152 | 354 ft | 2 kts | 153° |
| 2026-04-15 15:28 | 50.04404 | 8.56162 | 354 ft | 0 kts | 156° |
| 2026-04-15 15:29 | 50.04399 | 8.56167 | 354 ft | 0 kts | 154° |
| 2026-04-15 15:29 | 50.04396 | 8.56169 | 354 ft | 0 kts | 153° |